Time;durP1;ratioP1;P1;durP2;ratioP2;P2;SDS_P1;SDS_P2;PMS_P1;PMS_P2;Temp;Humidity;BMP_temperature;BMP_pressure;BME280_temperature;BME280_humidity;BME280_pressure;Samples;Min_cycle;Max_cycle;Signal;HPM_P1;HPM_P2
2021/09/14 00:00:42;;;;;;;10.57;3.72;;;15.60;99.90;;;16.10;83.00;101523.06;5107536;28;20191;-72
2021/09/14 00:03:10;;;;;;;9.90;3.70;;;15.50;99.90;;;16.10;83.06;101513.34;5107763;28;20187;-72
2021/09/14 00:05:37;;;;;;;11.07;4.10;;;15.60;99.90;;;16.13;82.92;101517.63;5100818;28;20184;-69
2021/09/14 00:08:04;;;;;;;10.30;3.90;;;15.60;99.90;;;16.16;83.17;101520.09;5108648;28;20194;-71
2021/09/14 00:10:31;;;;;;;10.10;3.63;;;15.60;99.90;;;16.17;83.04;101520.06;5112224;27;20209;-68
2021/09/14 00:12:58;;;;;;;13.32;4.18;;;15.60;99.90;;;16.16;82.80;101520.09;5112058;28;20568;-71
2021/09/14 00:15:25;;;;;;;10.85;3.85;;;15.60;99.90;;;16.15;83.18;101521.91;5104960;28;20191;-71
2021/09/14 00:17:51;;;;;;;9.23;3.53;;;15.60;99.90;;;16.17;83.10;101519.19;5105130;28;20178;-71
2021/09/14 00:20:19;;;;;;;12.02;3.50;;;15.60;99.90;;;16.19;82.91;101515.53;5107597;28;20725;-71
2021/09/14 00:22:46;;;;;;;13.25;3.67;;;15.60;99.90;;;16.21;82.99;101516.31;5111654;28;20559;-70
2021/09/14 00:25:13;;;;;;;11.68;4.00;;;15.60;99.90;;;16.24;83.00;101510.06;5109989;28;20199;-71
2021/09/14 00:27:40;;;;;;;11.23;4.13;;;15.60;99.90;;;16.24;83.39;101515.34;5111892;28;20650;-71
2021/09/14 00:30:08;;;;;;;10.55;3.70;;;15.70;99.90;;;16.24;82.94;101510.88;5111051;28;20183;-70
2021/09/14 00:32:35;;;;;;;9.57;3.50;;;15.70;99.90;;;16.23;82.62;101509.19;5091617;28;20544;-71
2021/09/14 00:35:01;;;;;;;12.75;3.72;;;15.70;99.90;;;16.22;82.64;101510.13;5098788;28;20638;-70
2021/09/14 00:37:29;;;;;;;10.35;3.88;;;15.60;99.90;;;16.21;82.40;101496.97;5109163;28;20198;-71
2021/09/14 00:39:56;;;;;;;10.00;3.72;;;15.60;99.90;;;16.21;82.37;101503.13;5104527;28;20562;-70
2021/09/14 00:42:23;;;;;;;10.48;3.78;;;15.60;99.90;;;16.20;82.18;101503.19;5111501;28;20203;-70
2021/09/14 00:44:50;;;;;;;10.40;3.85;;;15.50;99.90;;;16.17;82.17;101508.63;5106618;27;20540;-70
2021/09/14 00:47:17;;;;;;;9.27;3.45;;;15.50;99.90;;;16.15;82.14;101502.56;5105812;28;20191;-71
2021/09/14 00:49:44;;;;;;;9.10;3.40;;;15.50;99.90;;;16.14;82.29;101501.69;5104602;28;20184;-71
2021/09/14 00:52:12;;;;;;;11.40;3.60;;;15.50;99.90;;;16.12;82.38;101500.06;5119743;28;20217;-71
2021/09/14 00:54:42;;;;;;;11.45;3.80;;;15.50;99.90;;;16.10;82.34;101502.78;5119552;28;20187;-70
2021/09/14 00:57:09;;;;;;;9.25;3.20;;;15.40;99.90;;;16.07;82.74;101502.06;5107874;28;20190;-70
2021/09/14 00:59:36;;;;;;;9.88;3.35;;;15.40;99.90;;;16.05;82.54;101498.66;5110793;28;20183;-70
2021/09/14 01:02:04;;;;;;;9.98;3.50;;;15.40;99.90;;;16.02;82.56;101501.44;5111122;28;20682;-71
2021/09/14 01:04:31;;;;;;;8.65;3.40;;;15.40;99.90;;;15.98;82.64;101495.44;5108434;28;20198;-70
2021/09/14 01:06:58;;;;;;;12.73;3.33;;;15.30;99.90;;;15.96;82.63;101492.00;5111051;28;20239;-70
2021/09/14 01:09:26;;;;;;;7.97;3.20;;;15.30;99.90;;;15.92;82.54;101500.16;5109783;28;20195;-72
2021/09/14 01:11:55;;;;;;;11.13;3.42;;;15.30;99.90;;;15.88;82.58;101490.66;5108699;28;20261;-70
2021/09/14 01:14:22;;;;;;;9.35;3.35;;;15.20;99.90;;;15.86;82.99;101492.50;5108958;28;20240;-70
2021/09/14 01:16:49;;;;;;;9.43;3.40;;;15.30;99.90;;;15.83;83.31;101488.25;5107989;28;20678;-71
2021/09/14 01:19:15;;;;;;;9.85;3.88;;;15.20;99.90;;;15.81;83.44;101487.44;5109568;28;20206;-70
2021/09/14 01:21:43;;;;;;;8.73;2.92;;;15.20;99.90;;;15.80;83.32;101485.75;5110724;28;20301;-71
2021/09/14 01:24:13;;;;;;;10.15;3.22;;;15.20;99.90;;;15.78;83.62;101489.38;5110867;28;20190;-71
2021/09/14 01:26:45;;;;;;;9.15;3.17;;;15.20;99.90;;;15.76;83.46;101488.56;5109508;28;20318;-69
2021/09/14 01:30:12;;;;;;;9.18;3.33;;;15.20;99.90;;;15.75;83.46;101489.53;5107669;28;20526;-71
2021/09/14 01:32:10;;;;;;;10.23;3.83;;;15.20;99.90;;;15.77;83.43;101490.31;5108191;28;20632;-70
2021/09/14 01:34:37;;;;;;;10.85;3.67;;;15.10;99.90;;;15.75;83.47;101484.25;5110418;28;20670;-70
2021/09/14 01:37:06;;;;;;;10.20;3.70;;;15.10;99.90;;;15.72;83.46;101477.34;5112490;28;20187;-71
2021/09/14 01:39:35;;;;;;;17.42;4.40;;;15.10;99.90;;;15.72;83.63;101489.66;5112675;28;20273;-71
2021/09/14 01:42:03;;;;;;;9.68;3.60;;;15.10;99.90;;;15.71;83.52;101487.94;5103511;28;20207;-70
2021/09/14 01:44:30;;;;;;;11.02;4.10;;;15.10;99.90;;;15.70;83.65;101488.88;5111799;28;20197;-72
2021/09/14 01:46:57;;;;;;;8.68;3.28;;;15.10;99.90;;;15.69;83.97;101492.47;5111879;28;20270;-71
2021/09/14 01:49:24;;;;;;;10.85;3.55;;;15.10;99.90;;;15.71;83.86;101495.84;5123580;28;20194;-71
2021/09/14 01:51:51;;;;;;;14.82;4.03;;;15.10;99.90;;;15.72;83.78;101489.66;5128930;28;20286;-70
2021/09/14 01:54:18;;;;;;;8.90;3.33;;;15.10;99.90;;;15.72;83.80;101489.66;5128429;28;20199;-70
2021/09/14 01:56:46;;;;;;;11.35;3.75;;;15.10;99.90;;;15.72;83.32;101493.16;5119119;28;20194;-71
2021/09/14 01:59:14;;;;;;;12.43;3.42;;;15.10;99.90;;;15.72;83.39;101493.16;5122003;28;20222;-72
2021/09/14 02:01:49;;;;;;;10.55;3.60;;;15.10;99.90;;;15.73;83.29;101488.72;5128656;28;20237;-71
2021/09/14 02:04:19;;;;;;;10.43;3.60;;;15.10;99.90;;;15.71;83.32;101487.94;5132645;28;20199;-70
2021/09/14 02:07:15;;;;;;;11.57;3.28;;;15.10;99.90;;;15.70;83.43;101478.31;5126672;28;20175;-71
2021/09/14 02:40:23;;;;;;;10.07;3.63;;;14.90;99.90;;;15.52;83.97;101473.88;5110866;28;20664;-69
2021/09/14 02:43:02;;;;;;;9.80;3.67;;;14.90;99.90;;;15.51;83.97;101474.78;5112819;28;20693;-69
2021/09/14 02:56:45;;;;;;;11.30;4.05;;;14.80;99.90;;;15.44;84.26;101474.22;5105974;28;20190;-70
2021/09/14 02:59:11;;;;;;;9.48;3.58;;;14.80;99.90;;;15.43;84.42;101467.25;5113620;28;20190;-70
2021/09/14 03:01:39;;;;;;;10.88;3.92;;;14.80;99.90;;;15.44;84.29;101462.84;5112826;28;20827;-71
2021/09/14 03:04:08;;;;;;;12.10;3.90;;;14.80;99.90;;;15.45;84.44;101460.13;5109888;28;20187;-68
2021/09/14 03:06:35;;;;;;;10.13;3.63;;;14.80;99.90;;;15.46;84.11;101460.97;5107178;28;20558;-68
2021/09/14 03:09:13;;;;;;;12.48;3.95;;;14.80;99.90;;;15.46;84.07;101461.81;5111743;28;20615;-68
2021/09/14 03:11:40;;;;;;;11.25;4.13;;;14.80;99.90;;;15.47;83.85;101465.34;5109685;28;20356;-69
2021/09/14 03:14:11;;;;;;;9.18;3.70;;;14.80;99.90;;;15.46;83.70;101466.22;5115027;27;20218;-70
2021/09/14 03:16:40;;;;;;;11.30;4.38;;;14.80;99.90;;;15.43;83.65;101472.53;5111343;28;20190;-70
2021/09/14 03:19:07;;;;;;;12.50;4.45;;;14.80;99.90;;;15.42;83.85;101459.41;5112087;27;20532;-70
2021/09/14 03:21:35;;;;;;;12.32;3.92;;;14.80;99.90;;;15.43;83.80;101467.25;5105095;28;20210;-70
2021/09/14 03:24:05;;;;;;;9.38;3.55;;;14.80;99.90;;;15.41;83.61;101462.94;5112302;28;20202;-72
2021/09/14 03:26:32;;;;;;;12.43;3.92;;;14.70;99.90;;;15.36;83.58;101457.00;5108381;28;20215;-70
2021/09/14 03:28:59;;;;;;;12.40;3.97;;;14.70;99.90;;;15.33;83.92;101455.38;5111640;28;20186;-71
2021/09/14 03:31:27;;;;;;;10.57;3.72;;;14.70;99.90;;;15.33;83.89;101455.38;5112280;27;20217;-71
2021/09/14 03:33:57;;;;;;;10.88;3.67;;;14.70;99.90;;;15.34;83.89;101461.50;5112487;28;20198;-71
2021/09/14 03:36:24;;;;;;;11.50;4.18;;;14.70;99.90;;;15.31;84.06;101453.72;5111706;28;20257;-69
2021/09/14 03:38:52;;;;;;;14.43;4.07;;;14.70;99.90;;;15.30;84.00;101459.91;5107582;28;20264;-70
2021/09/14 03:41:18;;;;;;;13.38;4.05;;;14.70;99.90;;;15.30;84.31;101452.00;5103803;28;20203;-71
2021/09/14 03:43:45;;;;;;;13.07;4.00;;;14.70;99.90;;;15.30;84.09;101452.88;5112856;28;20246;-71
2021/09/14 03:46:12;;;;;;;12.35;4.30;;;14.70;99.90;;;15.29;84.29;101459.06;5107208;28;20206;-70
2021/09/14 03:48:39;;;;;;;9.98;3.95;;;14.70;99.90;;;15.29;84.07;101455.59;5107959;28;20179;-70
2021/09/14 03:51:07;;;;;;;10.57;4.10;;;14.70;99.90;;;15.30;84.21;101455.50;5112624;28;20230;-71
2021/09/14 03:53:35;;;;;;;12.27;3.65;;;14.70;99.90;;;15.30;83.86;101452.00;5112011;28;20709;-71
2021/09/14 03:56:02;;;;;;;11.75;3.85;;;14.70;99.90;;;15.28;83.75;101448.56;5112720;28;20187;-71
2021/09/14 03:58:32;;;;;;;10.45;3.53;;;14.60;99.90;;;15.26;83.82;101451.28;5111061;28;20270;-70
2021/09/14 04:00:59;;;;;;;11.00;3.80;;;14.60;99.90;;;15.27;83.85;101446.88;5108915;28;20195;-71
2021/09/14 04:03:37;;;;;;;13.90;4.22;;;14.70;99.90;;;15.26;83.67;101447.78;5110045;28;20613;-70
2021/09/14 04:06:34;;;;;;;11.85;4.10;;;14.60;99.90;;;15.22;83.80;101449.69;5115902;28;20187;-70
2021/09/14 04:09:01;;;;;;;12.00;3.85;;;14.60;99.90;;;15.23;83.79;101445.28;5105821;28;21592;-71
2021/09/14 04:11:48;;;;;;;11.25;3.80;;;14.60;99.90;;;15.26;83.53;101447.78;5128535;27;20222;-71
2021/09/14 04:14:15;;;;;;;11.70;4.07;;;14.60;99.90;;;15.25;83.60;101446.09;5116604;28;20233;-70
2021/09/14 04:16:42;;;;;;;9.95;4.00;;;14.60;99.90;;;15.21;83.74;101448.00;5116366;28;20194;-70
2021/09/14 04:19:09;;;;;;;8.70;3.10;;;14.60;99.90;;;15.19;83.76;101449.00;5109848;28;20273;-72
2021/09/14 04:21:38;;;;;;;10.85;3.10;;;14.60;99.90;;;15.18;83.94;101448.13;5111102;28;20692;-71
2021/09/14 04:24:06;;;;;;;12.07;3.80;;;14.60;99.90;;;15.17;83.88;101445.56;5109724;28;20247;-70
2021/09/14 04:26:35;;;;;;;11.30;3.92;;;14.50;99.90;;;15.15;84.23;101450.06;5112003;28;20236;-71
2021/09/14 04:29:02;;;;;;;15.02;4.35;;;14.50;99.90;;;15.15;84.12;101450.06;5107620;28;20203;-71
2021/09/14 04:31:29;;;;;;;11.18;3.97;;;14.50;99.90;;;15.13;84.38;101451.91;5110417;28;20223;-70
2021/09/14 04:33:56;;;;;;;12.18;4.10;;;14.50;99.90;;;15.12;84.37;101442.28;5111899;28;20206;-71
2021/09/14 04:36:23;;;;;;;11.52;3.95;;;14.50;99.90;;;15.12;84.47;101444.94;5107162;28;20186;-71
2021/09/14 04:38:51;;;;;;;11.55;4.03;;;14.50;99.90;;;15.11;84.53;101444.06;5108953;28;20653;-71
2021/09/14 04:41:19;;;;;;;12.13;4.68;;;14.50;99.90;;;15.09;84.17;101441.50;5109281;28;20230;-70
2021/09/14 04:43:46;;;;;;;11.75;4.50;;;14.50;99.90;;;15.08;84.35;101452.13;5110657;28;20187;-71
2021/09/14 04:46:12;;;;;;;12.77;4.88;;;14.50;99.90;;;15.09;84.67;101452.03;5106294;28;20224;-71
2021/09/14 04:48:39;;;;;;;12.52;4.38;;;14.50;99.90;;;15.09;84.49;101456.44;5115582;27;20194;-71
2021/09/14 04:51:06;;;;;;;13.15;4.35;;;14.50;99.90;;;15.09;84.44;101462.59;5101005;28;20213;-69
2021/09/14 04:53:33;;;;;;;10.45;4.05;;;14.50;99.90;;;15.08;84.54;101460.03;5101949;28;20199;-71
2021/09/14 04:56:01;;;;;;;11.00;4.28;;;14.50;99.90;;;15.06;84.68;101462.72;5117502;27;20201;-71
2021/09/14 04:58:32;;;;;;;12.65;4.80;;;14.50;99.90;;;15.06;84.79;101467.13;5110240;28;20198;-70
2021/09/14 05:01:00;;;;;;;14.00;4.72;;;14.50;99.90;;;15.06;85.04;101462.72;5109887;28;20534;-71
2021/09/14 05:03:27;;;;;;;13.88;5.00;;;14.50;99.90;;;15.06;84.98;101465.38;5102380;28;20318;-69
2021/09/14 05:05:56;;;;;;;14.15;4.60;;;14.50;99.90;;;15.07;84.80;101463.56;5103954;28;20182;-71
2021/09/14 05:08:23;;;;;;;10.38;4.32;;;14.50;99.90;;;15.08;85.28;101455.63;5104492;28;20221;-70
2021/09/14 05:10:51;;;;;;;15.38;4.63;;;14.50;99.90;;;15.10;84.87;101461.66;5107967;28;20222;-71
2021/09/14 05:13:19;;;;;;;13.15;4.15;;;14.50;99.90;;;15.12;85.26;101458.09;5107210;28;20302;-70
2021/09/14 05:15:46;;;;;;;12.10;4.80;;;14.60;99.90;;;15.14;85.18;101459.72;5118469;27;20179;-71
2021/09/14 05:18:22;;;;;;;14.00;4.97;;;14.60;99.90;;;15.17;84.97;101453.50;5105510;28;20183;-71
2021/09/14 05:20:57;;;;;;;14.13;4.35;;;14.60;99.90;;;15.17;84.71;101454.31;5106868;28;20240;-69
2021/09/14 05:23:30;;;;;;;11.60;4.03;;;14.60;99.90;;;15.20;84.86;101458.63;5105287;28;20596;-70
2021/09/14 05:25:58;;;;;;;17.25;4.38;;;14.60;99.90;;;15.24;84.83;101453.13;5105638;28;20195;-71
2021/09/14 05:28:26;;;;;;;10.90;4.03;;;14.60;99.90;;;15.25;84.74;101454.00;5096470;28;20190;-71
2021/09/14 05:30:54;;;;;;;13.50;4.30;;;14.60;99.90;;;15.29;84.92;101450.31;5107396;28;20186;-71
2021/09/14 05:33:21;;;;;;;11.95;4.53;;;14.70;99.90;;;15.33;85.04;101457.13;5106325;28;20197;-71
2021/09/14 05:35:50;;;;;;;13.95;4.35;;;14.70;99.90;;;15.37;84.63;101453.44;5107537;28;20182;-71
2021/09/14 05:38:21;;;;;;;10.38;3.47;;;14.80;99.90;;;15.42;84.50;101454.13;5108943;28;20214;-68
2021/09/14 05:40:50;;;;;;;11.38;4.20;;;14.80;99.90;;;15.44;84.70;101453.13;5107295;28;20179;-71
2021/09/14 05:43:24;;;;;;;11.45;3.83;;;14.80;99.90;;;15.46;84.53;101451.28;5104379;28;20190;-71
2021/09/14 05:45:54;;;;;;;11.85;4.22;;;14.90;99.90;;;15.49;84.54;101455.56;5103182;28;20179;-71
2021/09/14 05:48:25;;;;;;;11.90;3.72;;;14.90;99.90;;;15.52;84.53;101451.00;5109035;28;20586;-71
2021/09/14 05:50:52;;;;;;;11.20;4.15;;;15.00;99.90;;;15.54;84.26;101443.84;5107947;28;20663;-69
2021/09/14 05:53:20;;;;;;;12.90;4.30;;;15.00;99.90;;;15.57;83.94;101454.28;5110256;28;20703;-71
2021/09/14 05:55:52;;;;;;;12.80;4.50;;;15.00;99.90;;;15.61;83.23;101454.97;5105766;28;20215;-71
2021/09/14 05:58:19;;;;;;;9.73;3.65;;;15.00;99.90;;;15.64;83.57;101454.88;5106614;28;20595;-71
2021/09/14 06:00:46;;;;;;;12.13;3.90;;;15.10;99.90;;;15.67;83.61;101452.06;5108978;28;20199;-70
2021/09/14 06:03:14;;;;;;;13.68;5.03;;;15.10;99.90;;;15.72;83.62;101448.31;5110453;28;20661;-69
2021/09/14 06:05:42;;;;;;;12.38;4.25;;;15.10;99.90;;;15.78;83.43;101455.06;5096001;28;20218;-70
2021/09/14 06:08:09;;;;;;;14.48;4.75;;;15.20;99.90;;;15.82;83.39;101454.00;5107011;28;20187;-67
2021/09/14 06:10:41;;;;;;;12.82;4.53;;;15.20;99.90;;;15.83;83.00;101461.84;5097215;28;20186;-70
2021/09/14 06:13:11;;;;;;;12.77;4.63;;;15.20;99.90;;;15.87;82.60;101462.56;5110552;28;20704;-71
2021/09/14 06:15:38;;;;;;;12.90;4.72;;;15.30;99.90;;;15.90;82.25;101463.28;5100249;28;20215;-69
2021/09/14 06:18:06;;;;;;;11.95;4.40;;;15.30;99.90;;;15.94;81.93;101459.53;5103682;28;20190;-69
2021/09/14 06:20:36;;;;;;;12.25;5.25;;;15.30;99.90;;;15.97;81.57;101463.84;5095970;28;20636;-67
2021/09/14 06:23:03;;;;;;;13.10;5.25;;;15.40;99.90;;;15.98;81.59;101471.69;5098952;28;20231;-70
2021/09/14 06:25:30;;;;;;;14.55;4.97;;;15.40;99.90;;;16.02;81.67;101470.63;5097408;27;20190;-71
2021/09/14 06:28:00;;;;;;;19.55;6.07;;;15.40;99.90;;;16.06;81.65;101469.53;5095560;28;20201;-70
2021/09/14 06:30:29;;;;;;;15.40;5.60;;;15.50;99.90;;;16.08;80.78;101472.09;5103597;27;20367;-70
2021/09/14 06:32:56;;;;;;;13.68;5.72;;;15.50;99.90;;;16.09;80.83;101474.66;5109984;28;20243;-69
2021/09/14 06:35:23;;;;;;;12.27;4.43;;;15.50;99.90;;;16.15;80.87;101463.81;5107951;28;20195;-70
2021/09/14 06:37:52;;;;;;;12.63;4.40;;;15.50;99.90;;;16.19;81.00;101472.44;5110729;28;20190;-72
2021/09/14 06:40:19;;;;;;;12.10;4.63;;;15.60;99.90;;;16.23;80.89;101468.69;5111481;28;20183;-70
2021/09/14 06:42:46;;;;;;;12.77;4.43;;;15.60;99.90;;;16.28;80.49;101479.91;5106235;28;20750;-72
2021/09/14 06:45:42;;;;;;;13.40;4.70;;;15.70;99.90;;;16.32;79.92;101481.47;5109452;28;20275;-71
2021/09/14 06:48:16;;;;;;;13.50;3.95;;;15.70;99.90;;;16.38;79.58;101485.63;5108967;28;20206;-71
2021/09/14 06:50:43;;;;;;;12.63;4.03;;;15.80;99.90;;;16.45;79.26;101477.28;5108219;28;21853;-72
2021/09/14 06:53:12;;;;;;;13.55;4.20;;;15.90;99.90;;;16.50;79.15;101480.59;5107389;28;20236;-70
2021/09/14 06:55:39;;;;;;;11.57;3.90;;;15.90;99.90;;;16.56;78.49;101485.56;5112235;28;20207;-71
2021/09/14 06:58:06;;;;;;;12.32;3.42;;;16.00;99.90;;;16.59;78.10;101474.88;5112315;28;20538;-70
2021/09/14 07:00:33;;;;;;;11.93;3.63;;;16.10;99.90;;;16.65;77.36;101479.84;5107856;28;20201;-72
2021/09/14 07:03:00;;;;;;;10.02;3.72;;;16.20;99.90;;;16.70;77.30;101482.22;5111836;28;20221;-70
2021/09/14 07:05:27;;;;;;;10.77;4.00;;;16.20;99.90;;;16.74;76.70;101489.97;5108867;28;20558;-70
2021/09/14 07:07:54;;;;;;;14.80;3.17;;;16.30;99.90;;;16.79;77.03;101482.66;5103492;28;20186;-71
2021/09/14 07:10:22;;;;;;;10.02;3.38;;;16.30;99.90;;;16.83;77.02;101486.81;5112407;28;20214;-70
2021/09/14 07:12:49;;;;;;;11.65;3.55;;;16.40;99.90;;;16.88;77.02;101487.44;5115519;27;20207;-70
2021/09/14 07:15:15;;;;;;;8.93;2.95;;;16.40;99.90;;;16.94;76.83;101489.78;5105275;28;20687;-70
2021/09/14 07:17:43;;;;;;;10.93;3.70;;;16.40;99.90;;;16.99;76.66;101482.47;5105126;28;20689;-70
2021/09/14 07:20:11;;;;;;;9.50;3.53;;;16.50;99.90;;;17.04;76.24;101475.16;5112980;28;22425;-70
2021/09/14 07:22:38;;;;;;;11.55;3.30;;;16.60;99.90;;;17.09;76.20;101474.91;5106286;28;20211;-69
2021/09/14 07:25:06;;;;;;;12.15;3.10;;;16.60;99.90;;;17.12;74.92;101475.63;5111169;28;20581;-70
2021/09/14 07:27:35;;;;;;;8.60;3.03;;;16.70;99.90;;;17.16;74.30;101477.16;5101201;28;20196;-71
2021/09/14 07:30:02;;;;;;;7.60;2.80;;;16.70;99.90;;;17.20;73.75;101483.13;5108928;28;20592;-70
2021/09/14 07:32:29;;;;;;;9.50;3.50;;;16.80;99.90;;;17.23;73.76;101475.06;5104770;28;20217;-68
2021/09/14 07:34:56;;;;;;;9.18;2.97;;;16.80;99.90;;;17.26;73.85;101478.38;5091642;28;20722;-71
2021/09/14 07:37:23;;;;;;;9.45;3.22;;;16.80;99.90;;;17.32;74.23;101482.50;5104767;28;20191;-71
2021/09/14 07:39:50;;;;;;;12.63;3.40;;;16.90;99.90;;;17.36;73.60;101476.94;5102831;28;20192;-73
2021/09/14 07:42:17;;;;;;;10.82;3.25;;;17.00;99.90;;;17.39;72.96;101470.66;5109486;28;20210;-71
2021/09/14 07:44:45;;;;;;;11.75;3.20;;;17.00;99.90;;;17.44;73.01;101468.63;5107839;28;20667;-70
2021/09/14 07:47:12;;;;;;;11.43;3.10;;;17.10;99.90;;;17.48;72.88;101468.38;5109329;28;20197;-68
2021/09/14 07:49:39;;;;;;;9.77;3.33;;;17.10;99.90;;;17.55;72.98;101478.66;5110674;28;20186;-71
2021/09/14 07:52:05;;;;;;;10.63;3.42;;;17.20;99.90;;;17.59;72.60;101475.75;5110035;27;20203;-70
2021/09/14 07:54:32;;;;;;;9.98;3.13;;;17.20;99.90;;;17.63;72.83;101471.16;5116294;27;20678;-70
2021/09/14 07:56:59;;;;;;;9.65;3.55;;;17.30;99.90;;;17.69;72.67;101473.47;5112538;28;20190;-70
2021/09/14 07:59:26;;;;;;;8.77;3.20;;;17.30;99.90;;;17.73;72.66;101477.66;5108568;28;20183;-70
2021/09/14 08:01:54;;;;;;;9.70;3.08;;;17.40;99.90;;;17.76;72.20;101478.34;5112066;28;20218;-71
2021/09/14 08:04:21;;;;;;;8.38;2.90;;;17.40;99.90;;;17.81;71.89;101475.44;5103964;28;20191;-69
2021/09/14 08:06:47;;;;;;;9.65;2.72;;;17.50;99.90;;;17.84;72.21;101477.91;5100284;28;20194;-69
2021/09/14 08:09:14;;;;;;;9.02;3.53;;;17.50;99.90;;;17.88;72.43;101477.69;5106746;28;20187;-70
2021/09/14 08:11:41;;;;;;;9.70;2.92;;;17.60;99.90;;;17.92;72.73;101475.69;5099165;28;20214;-71
2021/09/14 08:14:08;;;;;;;9.10;2.85;;;17.60;99.90;;;17.97;72.72;101482.44;5104763;28;20553;-70
2021/09/14 08:16:35;;;;;;;8.98;2.78;;;17.70;99.90;;;18.01;72.72;101470.75;5102989;28;20187;-70
2021/09/14 08:19:03;;;;;;;7.65;2.40;;;17.70;99.90;;;18.06;72.63;101471.34;5100835;28;20647;-69
2021/09/14 08:21:30;;;;;;;8.30;2.50;;;17.80;99.90;;;18.10;72.17;101482.63;5103847;28;20202;-68
2021/09/14 08:23:58;;;;;;;8.20;2.65;;;17.80;99.90;;;18.14;72.66;101482.38;5102815;28;20285;-72
2021/09/14 08:26:25;;;;;;;10.15;2.90;;;17.80;99.90;;;18.20;72.57;101470.56;5108810;28;20199;-72
2021/09/14 08:28:52;;;;;;;8.63;2.70;;;17.90;99.90;;;18.25;72.65;101476.47;5103691;28;20223;-69
2021/09/14 08:31:24;;;;;;;12.45;3.05;;;18.00;99.90;;;18.29;72.56;101478.00;5106107;28;20206;-70
2021/09/14 08:33:51;;;;;;;9.32;2.92;;;18.00;99.90;;;18.32;72.54;101480.47;5101802;28;20254;-70
2021/09/14 08:36:19;;;;;;;9.02;2.67;;;18.10;99.90;;;18.33;71.89;101469.78;5105241;28;20222;-70
2021/09/14 08:38:46;;;;;;;11.23;3.17;;;18.10;99.90;;;18.39;71.86;101472.13;5102282;28;20191;-71
2021/09/14 08:41:17;;;;;;;7.13;2.60;;;18.20;99.90;;;18.45;71.65;101473.56;5106120;28;20295;-70
2021/09/14 08:43:50;;;;;;;10.77;2.92;;;18.20;99.90;;;18.50;71.49;101472.34;5107295;28;20179;-69
2021/09/14 08:46:19;;;;;;;12.38;2.97;;;18.30;99.90;;;18.55;70.92;101477.38;5102858;28;20179;-70
2021/09/14 08:48:48;;;;;;;9.43;2.88;;;18.30;99.90;;;18.55;70.49;101477.38;5102427;28;20998;-70
2021/09/14 08:51:16;;;;;;;8.88;3.13;;;18.30;99.90;;;18.54;70.45;101471.22;5105812;28;20206;-70
2021/09/14 08:53:44;;;;;;;8.73;2.88;;;18.30;99.90;;;18.58;70.56;101464.81;5100961;28;20190;-70
2021/09/14 08:56:12;;;;;;;8.57;2.78;;;18.40;99.90;;;18.65;70.72;101468.78;5102055;28;20210;-72
2021/09/14 08:58:39;;;;;;;9.60;3.00;;;18.50;99.90;;;18.73;70.05;101465.69;5108706;27;20191;-70
2021/09/14 09:01:11;;;;;;;8.25;2.65;;;18.50;99.90;;;18.81;70.05;101470.53;5100465;28;20230;-70
2021/09/14 09:03:38;;;;;;;8.48;2.78;;;18.60;99.90;;;18.85;69.82;101462.31;5098899;28;20615;-72
2021/09/14 09:06:05;;;;;;;11.15;2.60;;;18.70;99.90;;;18.90;69.32;101468.22;5103067;27;20190;-72
2021/09/14 09:08:34;;;;;;;8.13;2.50;;;18.70;99.90;;;18.97;69.58;101477.50;5098456;28;20186;-70
2021/09/14 09:11:05;;;;;;;8.18;2.60;;;18.80;99.90;;;18.99;69.18;101475.59;5100065;28;20206;-71
2021/09/14 09:13:34;;;;;;;8.80;2.85;;;18.80;99.90;;;18.99;68.84;101466.81;5108254;28;20187;-71
2021/09/14 09:16:01;;;;;;;9.20;2.75;;;18.80;99.90;;;19.03;68.38;101469.16;5103406;28;20215;-70
2021/09/14 09:18:28;;;;;;;8.35;2.50;;;18.80;99.90;;;19.07;68.34;101462.75;5097518;28;20663;-71
2021/09/14 09:21:03;;;;;;;9.73;2.88;;;18.90;99.90;;;19.14;68.18;101456.09;5097184;28;20675;-72
2021/09/14 09:23:30;;;;;;;8.88;2.70;;;19.00;99.90;;;19.20;67.90;101463.69;5093386;28;20186;-70
2021/09/14 09:26:10;;;;;;;8.77;2.55;;;19.00;99.90;;;19.29;68.16;101459.63;5098179;28;20686;-70
2021/09/14 09:28:38;;;;;;;7.88;2.50;;;19.10;99.90;;;19.32;68.51;101460.34;5102083;28;20642;-70
2021/09/14 09:31:09;;;;;;;7.95;2.60;;;19.20;99.90;;;19.35;68.22;101464.59;5103993;28;20663;-70
2021/09/14 09:33:38;;;;;;;22.63;10.63;;;19.20;99.90;;;19.40;68.44;101466.00;5102339;28;20279;-70
2021/09/14 09:36:07;;;;;;;10.07;3.78;;;19.20;99.90;;;19.45;68.24;101453.31;5098236;28;20214;-70
2021/09/14 09:38:47;;;;;;;8.52;2.95;;;19.30;99.90;;;19.52;67.56;101453.78;5099104;28;20194;-70
2021/09/14 09:41:20;;;;;;;8.80;2.58;;;19.40;99.90;;;19.56;67.56;101452.63;5105736;28;20281;-72
2021/09/14 09:43:49;;;;;;;9.48;2.67;;;19.40;99.90;;;19.58;67.33;101448.94;5101303;28;20248;-71
2021/09/14 09:46:19;;;;;;;10.73;2.72;;;19.50;99.90;;;19.64;67.33;101445.03;5109587;28;20643;-70
2021/09/14 09:48:46;;;;;;;7.25;2.50;;;19.50;99.90;;;19.67;67.09;101455.47;5101635;28;20309;-70
2021/09/14 09:51:13;;;;;;;8.27;2.13;;;19.60;99.90;;;19.69;66.80;101451.75;5103183;28;20234;-70
2021/09/14 09:53:40;;;;;;;6.72;2.20;;;19.60;99.90;;;19.75;66.70;101451.38;5105453;28;20224;-71
2021/09/14 09:56:08;;;;;;;6.25;2.20;;;19.70;99.90;;;19.80;66.93;101446.63;5105077;28;20214;-71
2021/09/14 09:58:36;;;;;;;9.43;2.45;;;19.70;99.90;;;19.86;66.09;101443.56;5106587;28;20191;-71
2021/09/14 10:01:09;;;;;;;8.80;2.70;;;19.80;99.90;;;19.88;65.83;101454.09;5108246;28;20665;-69
2021/09/14 10:03:48;;;;;;;8.63;2.65;;;19.80;99.90;;;19.88;65.71;101444.31;5106297;27;20643;-68
2021/09/14 10:06:16;;;;;;;7.68;2.70;;;19.80;99.90;;;19.91;65.89;101440.59;5106503;28;20190;-68
2021/09/14 10:08:53;;;;;;;9.48;3.13;;;19.80;99.90;;;19.95;66.03;101440.31;5107568;28;20195;-69
2021/09/14 10:11:29;;;;;;;8.77;2.50;;;19.90;99.90;;;19.99;65.83;101441.81;5111688;28;20244;-70
2021/09/14 10:14:10;;;;;;;9.65;2.67;;;19.90;99.90;;;20.04;66.26;101430.03;5107799;28;20689;-69
2021/09/14 10:16:44;;;;;;;7.55;2.67;;;19.90;99.90;;;20.06;65.98;101433.47;5109501;28;20204;-71
2021/09/14 10:19:13;;;;;;;9.13;2.53;;;19.90;99.90;;;20.09;65.75;101438.56;5105205;28;20248;-68
2021/09/14 10:21:41;;;;;;;8.65;2.38;;;20.00;99.90;;;20.14;65.58;101437.31;5109852;28;20697;-68
2021/09/14 10:24:20;;;;;;;10.23;3.10;;;20.00;99.90;;;20.21;65.76;101440.47;5103999;28;20821;-69
2021/09/14 10:26:47;;;;;;;6.55;2.38;;;20.10;99.90;;;20.22;65.28;101442.16;5107740;27;20266;-71
2021/09/14 10:29:19;;;;;;;8.02;2.83;;;20.10;99.90;;;20.23;64.83;101435.91;5105016;28;20195;-70
2021/09/14 10:31:46;;;;;;;9.10;3.05;;;20.10;99.90;;;20.24;65.31;101435.81;5109960;28;20199;-70
2021/09/14 10:34:16;;;;;;;8.70;2.70;;;20.20;99.90;;;20.33;64.74;101435.16;5108307;28;20207;-70
2021/09/14 10:36:58;;;;;;;8.15;2.78;;;20.20;99.90;;;20.40;64.34;101438.28;5105344;28;20244;-68
2021/09/14 10:39:26;;;;;;;8.20;2.33;;;20.20;99.90;;;20.42;64.46;101436.38;5101295;28;20242;-70
2021/09/14 10:41:55;;;;;;;7.82;3.05;;;20.20;99.90;;;20.35;63.44;101430.59;5111709;28;20206;-70
2021/09/14 10:44:28;;;;;;;9.82;3.05;;;20.20;99.90;;;20.30;63.91;101422.09;5119187;28;20202;-70
2021/09/14 10:47:08;;;;;;;10.57;3.30;;;20.10;99.90;;;20.32;63.82;101419.31;5122988;28;20189;-69
2021/09/14 10:49:47;;;;;;;10.10;3.35;;;20.10;99.90;;;20.41;64.11;101424.88;5114207;28;20275;-68
2021/09/14 10:52:17;;;;;;;10.20;3.30;;;20.20;99.90;;;20.47;63.62;101428.94;5115211;27;20215;-70
2021/09/14 10:54:47;;;;;;;9.10;2.78;;;20.30;99.90;;;20.54;63.41;101427.56;5108016;28;20206;-70
2021/09/14 10:57:14;;;;;;;7.63;2.55;;;20.40;99.90;;;20.54;63.16;101424.91;5102972;28;20196;-71